El-djazair II — 7TBR — position and weather

sailwx.info

Track history (hours):
 
Tides and Currents Weather Stations Pressure Air Temp Water Temp Dewpoint Dewpoint Depression Visibility Wind Speed Wind Dir Waves Ship Positions

El-djazair II

Last reported at 2014-Oct-31 00:25 UTC. Time now 2014-Oct-31 14:30 UTC.
Position N 37°34' W 000°26'.

Length 146 m; draft 6.3 m.

Type: Passenger vessel. MMSI: 605026190.

Date/timePositionNaut miles runAvg speedWind from/ knotsBaromVisibWave heightAir tempDewpointWater temp
2014-Oct-31 00:25N 37°34' W 000°26'1719.7
2014-Oct-30 23:33N 37°51' W 000°24'14 0.7
2014-Oct-30 04:21N 38°02' W 000°13'1820.0
2014-Oct-30 03:26N 37°44' W 000°16'4620.4
2014-Oct-30 01:10N 36°58' W 000°25'1520.4
2014-Oct-30 00:25N 36°43' W 000°28'4120.7
2014-Oct-29 22:27N 36°03' W 000°32'92 2.0
2014-Oct-28 00:31N 37°35' W 000°26'2020.5
2014-Oct-27 23:33N 37°54' W 000°24'37 1.9
2014-Oct-27 04:29N 38°07' E 000°20'3415.0
2014-Oct-27 02:12N 37°40' W 000°05'1319.7
2014-Oct-27 01:33N 37°30' W 000°16'2920.2
2014-Oct-27 00:08N 37°02' W 000°23'1220.4
2014-Oct-26 23:33N 36°50' W 000°25'2220.2
2014-Oct-26 22:28N 36°28' W 000°28'4621.7
2014-Oct-26 20:22N 35°43' W 000°37'1 0.2
2014-Oct-26 14:33N 35°43' W 000°39'1 0.7
2014-Oct-26 13:32N 35°43' W 000°38'6515.9
2014-Oct-26 09:28N 36°40' E 000°01'2021.4
2014-Oct-26 08:33N 36°56' E 000°14'2120.9
2014-Oct-26 07:33N 37°13' E 000°29'6822.5
2014-Oct-26 04:32N 38°10' E 001°15'2823.2
2014-Oct-26 03:20N 38°33' E 001°35'1823.1
2014-Oct-26 02:33N 38°49' E 001°46'2423.5
2014-Oct-26 01:33N 39°11' E 001°57'2323.5
2014-Oct-26 00:33N 39°33' E 002°09'2322.9
2014-Oct-25 23:33N 39°52' E 002°25'2322.9
2014-Oct-25 22:33N 40°12' E 002°41'2323.1
2014-Oct-25 21:33N 40°31' E 002°57'2323.3
2014-Oct-25 20:33N 40°51' E 003°13'2323.4
2014-Oct-25 19:33N 41°11' E 003°29'2423.3
2014-Oct-25 18:32N 41°31' E 003°46'2323.5
2014-Oct-25 17:33N 41°50' E 004°03'2623.2
2014-Oct-25 16:25N 42°13' E 004°21'2324.1
2014-Oct-25 15:28N 42°32' E 004°37'2424.9
2014-Oct-25 14:31N 42°52' E 004°55'2121.7
2014-Oct-25 13:33N 43°10' E 005°10'12 3.0
2014-Oct-25 09:30N 43°18' E 005°22'1212.4
2014-Oct-25 08:33N 43°07' E 005°20'2723.9
2014-Oct-25 07:26N 42°41' E 005°31'3023.2
2014-Oct-25 06:08N 42°12' E 005°43'4122.6
2014-Oct-25 04:21N 41°34' E 005°59'  
2014-Oct-21 07:17N 36°54' E 007°46'1317.7
2014-Oct-21 06:33N 37°07' E 007°46'14223.4
2014-Oct-21 00:29N 39°22' E 006°54'  
Track history (hours):
 
Tides and Currents Weather Stations Pressure Air Temp Water Temp Dewpoint Dewpoint Depression Visibility Wind Speed Wind Dir Waves Ship Positions

El-djazair II

Last reported at 2014-Oct-31 00:25 UTC. Time now 2014-Oct-31 14:30 UTC.
Position N 37°34' W 000°26'.

Length 146 m; draft 6.3 m.

Type: Passenger vessel. MMSI: 605026190.

Date/timePositionNaut miles runAvg speedWind from/ knotsBaromVisibWave heightAir tempDewpointWater temp
2014-Oct-31 00:25N 37°34' W 000°26'1719.7
2014-Oct-30 23:33N 37°51' W 000°24'14 0.7
2014-Oct-30 04:21N 38°02' W 000°13'1820.0
2014-Oct-30 03:26N 37°44' W 000°16'4620.4
2014-Oct-30 01:10N 36°58' W 000°25'1520.4
2014-Oct-30 00:25N 36°43' W 000°28'4120.7
2014-Oct-29 22:27N 36°03' W 000°32'92 2.0
2014-Oct-28 00:31N 37°35' W 000°26'2020.5
2014-Oct-27 23:33N 37°54' W 000°24'37 1.9
2014-Oct-27 04:29N 38°07' E 000°20'3415.0
2014-Oct-27 02:12N 37°40' W 000°05'1319.7
2014-Oct-27 01:33N 37°30' W 000°16'2920.2
2014-Oct-27 00:08N 37°02' W 000°23'1220.4
2014-Oct-26 23:33N 36°50' W 000°25'2220.2
2014-Oct-26 22:28N 36°28' W 000°28'4621.7
2014-Oct-26 20:22N 35°43' W 000°37'1 0.2
2014-Oct-26 14:33N 35°43' W 000°39'1 0.7
2014-Oct-26 13:32N 35°43' W 000°38'6515.9
2014-Oct-26 09:28N 36°40' E 000°01'2021.4
2014-Oct-26 08:33N 36°56' E 000°14'2120.9
2014-Oct-26 07:33N 37°13' E 000°29'6822.5
2014-Oct-26 04:32N 38°10' E 001°15'2823.2
2014-Oct-26 03:20N 38°33' E 001°35'1823.1
2014-Oct-26 02:33N 38°49' E 001°46'2423.5
2014-Oct-26 01:33N 39°11' E 001°57'2323.5
2014-Oct-26 00:33N 39°33' E 002°09'2322.9
2014-Oct-25 23:33N 39°52' E 002°25'2322.9
2014-Oct-25 22:33N 40°12' E 002°41'2323.1
2014-Oct-25 21:33N 40°31' E 002°57'2323.3
2014-Oct-25 20:33N 40°51' E 003°13'2323.4
2014-Oct-25 19:33N 41°11' E 003°29'2423.3
2014-Oct-25 18:32N 41°31' E 003°46'2323.5
2014-Oct-25 17:33N 41°50' E 004°03'2623.2
2014-Oct-25 16:25N 42°13' E 004°21'2324.1
2014-Oct-25 15:28N 42°32' E 004°37'2424.9
2014-Oct-25 14:31N 42°52' E 004°55'2121.7
2014-Oct-25 13:33N 43°10' E 005°10'12 3.0
2014-Oct-25 09:30N 43°18' E 005°22'1212.4
2014-Oct-25 08:33N 43°07' E 005°20'2723.9
2014-Oct-25 07:26N 42°41' E 005°31'3023.2
2014-Oct-25 06:08N 42°12' E 005°43'4122.6
2014-Oct-25 04:21N 41°34' E 005°59'  
2014-Oct-21 07:17N 36°54' E 007°46'1317.7
2014-Oct-21 06:33N 37°07' E 007°46'14223.4
2014-Oct-21 00:29N 39°22' E 006°54'  

Dump ship's entire track history